• Join FlightAware (Why Join?)
  • Login
  • US Flag 
11:13PM EDT


 

Airport Tracker/Info


-or-


 

Live Flight TrackerFlight Track Log ✈ SWA2093 ✈ 13-Apr-2013 ✈ KIND - KPHX

Flight Track Log - Related Links

Times and Time Zones

All times are in EDT time to prevent confusion due to time zone crossing. See the SWA2093 flight status page for this flight to view local times or setup timezone preferences in your user account.

Time Position Orientation Groundspeed Altitude Reporting Facility
EDT Latitude Longitude Course Direction KTS MPH feet Rate Location/Type
01:38PM 39.6833 -86.3500 237° Southwest 180 207 2,500  Level Indianapolis TRACON
01:39PM 39.6667 -86.4167 252° West 236 272 5,100 3,060 Climbing Indianapolis TRACON
01:40PM 39.6425 -86.5042 250° West 230 265 9,000 2,580 Climbing Indianapolis Center
01:41PM 39.6278 -86.5831 256° West 223 257 10,700 1,800 Climbing Indianapolis Center
01:42PM 39.6292 -86.6889 271° West 255 293 12,700 2,220 Climbing Indianapolis Center
01:43PM 39.5267 -87.0436 252° West  Level FlightAware Approximate
01:43PM 39.6269 -86.8028 269° West 284 327 15,300  Level Indianapolis Center
01:44PM 39.6267 -86.9164 270° West 301 346 17,800 2,100 Climbing Indianapolis Center
01:45PM 39.6253 -87.0311 269° West 309 356 19,700 1,920 Climbing Indianapolis Center
01:46PM 39.6222 -87.1469 268° West 319 367 21,800 1,440 Climbing Indianapolis Center
01:47PM 39.6214 -87.2639 270° West 322 371 22,700 1,260 Climbing Indianapolis Center
01:48PM 39.6200 -87.4167 269° West 346 398 24,400 1,860 Climbing Indianapolis Center
01:49PM 39.6172 -87.5400 268° West 344 396 26,600 1,740 Climbing Indianapolis Center
01:50PM 39.6150 -87.6564 269° West 329 379 28,000 1,260 Climbing Indianapolis Center
01:51PM 39.6133 -87.7742 269° West 327 376 29,200 1,020 Climbing Indianapolis Center
01:52PM 39.6114 -87.8922 269° West 326 375 30,200 900 Climbing Indianapolis Center
01:53PM 39.6097 -87.9683 268° West 331 381 30,700 960 Climbing Kansas City Center
01:54PM 39.6067 -88.0883 268° West 332 382 31,800 600 Climbing Kansas City Center
01:55PM 39.6047 -88.2072 269° West 331 381 32,000 780 Climbing Kansas City Center
01:56PM 39.6017 -88.3281 268° West 333 383 33,400 900 Climbing Kansas City Center
01:57PM 39.5981 -88.4439 268° West 327 376 34,000 240 Climbing Kansas City Center
01:58PM 39.5947 -88.5761 268° West 329 379 34,000  Level Kansas City Center
01:59PM 39.5928 -88.6981 269° West 338 389 34,000  Level Kansas City Center
02:00PM 39.5892 -88.8219 268° West 341 392 34,000  Level Kansas City Center
02:01PM 39.5858 -88.9447 268° West 342 394 34,000  Level Kansas City Center
02:02PM 39.5819 -89.0689 268° West 343 395 34,000  Level Kansas City Center
02:03PM 39.5781 -89.2164 268° West 342 394 34,000  Level Kansas City Center
02:04PM 39.5750 -89.3306 268° West 342 394 34,000  Level Kansas City Center
02:05PM 39.5706 -89.4531 267° West 342 394 34,000  Level Kansas City Center
02:06PM 39.5669 -89.5764 268° West 342 394 34,000  Level Kansas City Center
02:07PM 39.5631 -89.7256 268° West 346 398 34,000  Level Kansas City Center
02:08PM 39.5578 -89.8478 267° West 344 396 34,000  Level Kansas City Center
02:09PM 39.5539 -89.9725 268° West 346 398 34,000  Level Kansas City Center
02:10PM 39.5494 -90.0972 267° West 349 402 34,000  Level Kansas City Center
02:11PM 39.5450 -90.2208 267° West 347 399 34,000  Level Kansas City Center
02:12PM 39.5408 -90.3458 268° West 348 400 34,000  Level Kansas City Center
02:13PM 39.5339 -90.4958 267° West 350 403 34,000  Level Kansas City Center
02:14PM 39.5294 -90.6206 267° West 350 403 34,000  Level Kansas City Center
02:15PM 39.5236 -90.7461 267° West 350 403 34,000  Level Kansas City Center
02:16PM 39.5183 -90.8700 267° West 348 400 34,000  Level Kansas City Center
02:17PM 39.5136 -90.9961 267° West 351 404 34,000  Level Kansas City Center
02:19PM 39.5072 -91.1208 266° West 350 403 34,000  Level Kansas City Center
02:20PM 39.5008 -91.2694 267° West 349 402 34,000  Level Kansas City Center
02:21PM 39.4942 -91.3967 266° West 352 405 34,000  Level Kansas City Center
02:22PM 39.4883 -91.5217 267° West 351 404 34,000  Level Kansas City Center
02:23PM 39.4819 -91.6469 266° West 350 403 34,000  Level Kansas City Center
02:24PM 39.4758 -91.7717 266° West 352 405 34,000  Level Kansas City Center
02:25PM 39.4697 -91.8964 266° West 350 403 34,000  Level Kansas City Center
02:26PM 39.4619 -92.0483 266° West 353 406 34,000  Level Kansas City Center
02:27PM 39.4553 -92.1722 266° West 350 403 34,000  Level Kansas City Center
02:28PM 39.4475 -92.3006 266° West 355 409 34,000  Level Kansas City Center
02:29PM 39.4411 -92.4275 266° West 356 410 34,000  Level Kansas City Center
02:30PM 39.4333 -92.5553 266° West 356 410 34,000  Level Kansas City Center
02:31PM 39.4256 -92.6822 266° West 356 410 34,000  Level Kansas City Center
02:32PM 39.4183 -92.8111 266° West 359 413 34,000  Level Kansas City Center
02:33PM 39.4081 -92.9669 265° West 363 418 34,000  Level Kansas City Center
02:34PM 39.4000 -93.0964 265° West 362 417 34,000  Level Kansas City Center
02:35PM 39.3917 -93.2286 265° West 368 423 34,000  Level Kansas City Center
02:36PM 39.3833 -93.3603 265° West 369 425 34,000  Level Kansas City Center
02:37PM 39.3739 -93.4911 265° West 368 423 34,000  Level Kansas City Center
02:38PM 39.3636 -93.6225 264° West 370 426 34,000  Level Kansas City Center
02:39PM 39.3567 -93.7692 267° West 373 429 34,000  Level Kansas City Center
02:40PM 39.3453 -93.9186 264° West 375 432 34,000  Level Kansas City Center
02:41PM 39.3361 -94.0472 265° West 375 432 34,000  Level Kansas City Center
02:42PM 39.3272 -94.1767 265° West 377 434 34,000  Level Kansas City Center
02:43PM 39.3164 -94.3286 265° West 381 438 34,000  Level Kansas City Center
02:44PM 39.3067 -94.4589 265° West 382 440 34,000  Level Kansas City Center
02:45PM 39.2958 -94.6111 265° West 382 440 34,000  Level Kansas City Center
02:46PM 39.2844 -94.7414 264° West 382 440 34,000  Level Kansas City Center
02:47PM 39.2664 -94.8967 262° West 395 455 34,000  Level Kansas City Center
02:48PM 39.2522 -95.0275 262° West 387 445 34,000  Level Kansas City Center
02:49PM 39.2350 -95.1717 261° West 388 447 34,000  Level Kansas City Center
02:50PM 39.2183 -95.3194 262° West 387 445 34,000  Level Kansas City Center
02:51PM 39.2022 -95.4564 261° West 386 444 34,000  Level Kansas City Center
02:52PM 39.1867 -95.5883 261° West 392 451 34,000  Level Kansas City Center
02:53PM 39.1675 -95.7428 261° West 391 450 34,000  Level Kansas City Center
02:54PM 39.1514 -95.8781 261° West 398 458 34,000  Level Kansas City Center
02:55PM 39.1319 -96.0339 261° West 396 456 34,000  Level Kansas City Center
02:57PM 39.1156 -96.1686 261° West 397 457 34,000  Level Kansas City Center
02:58PM 39.0983 -96.3039 261° West 400 460 34,000  Level Kansas City Center
02:59PM 39.0650 -96.4569 254° West 403 464 34,000  Level Kansas City Center
03:00PM 39.0294 -96.5853 250° West 398 458 34,000  Level Kansas City Center
03:01PM 38.9886 -96.7375 251° West 403 464 34,000  Level Kansas City Center
03:02PM 38.9533 -96.8822 253° West 406 467 34,000  Level Kansas City Center
03:03PM 38.9175 -97.0175 251° West 402 463 34,000  Level Kansas City Center
03:04PM 38.8819 -97.1536 251° West 402 463 34,000  Level Kansas City Center
03:05PM 38.8453 -97.2881 251° West 401 461 34,000  Level Kansas City Center
03:06PM 38.8083 -97.4231 251° West 402 463 34,000  Level Kansas City Center
03:07PM 38.7722 -97.5614 252° West 398 458 34,000  Level Kansas City Center
03:08PM 38.7306 -97.7108 250° West 399 459 34,000  Level Kansas City Center
03:09PM 38.6928 -97.8519 251° West 402 463 34,000  Level Kansas City Center
03:10PM 38.6547 -97.9858 250° West 403 464 34,000  Level Kansas City Center
03:11PM 38.6181 -98.1189 251° West 401 461 34,000  Level Kansas City Center
03:12PM 38.5811 -98.2533 251° West 402 463 34,000  Level Kansas City Center
03:13PM 38.5433 -98.3872 250° West 403 464 34,000  Level Kansas City Center
03:14PM 38.5053 -98.5203 250° West 402 463 34,000  Level Kansas City Center
03:15PM 38.4689 -98.6547 251° West 402 463 34,000  Level Kansas City Center
03:16PM 38.4219 -98.8161 250° West 405 466 34,000  Level Kansas City Center
03:17PM 38.3825 -98.9517 250° West 408 470 34,000  Level Kansas City Center
03:18PM 38.3444 -99.0881 250° West 409 471 34,000  Level Kansas City Center
03:19PM 38.3047 -99.2236 250° West 409 471 34,000  Level Kansas City Center
03:20PM 38.2658 -99.3594 250° West 409 471 34,000  Level Kansas City Center
03:21PM 38.2194 -99.5111 249° West 409 471 34,000  Level Kansas City Center
03:22PM 38.1828 -99.6417 250° West 410 472 34,000  Level Kansas City Center
03:23PM 38.1392 -99.7925 250° West 409 471 34,000  Level Kansas City Center
03:24PM 38.1006 -99.9233 249° West 412 474 34,000  Level Kansas City Center
03:25PM 38.0553 -100.0753 249° West 413 475 34,000  Level Kansas City Center
03:26PM 38.0150 -100.2050 249° West 413 475 34,000  Level Kansas City Center
03:27PM 37.9697 -100.3581 249° West 415 478 34,000  Level Kansas City Center
03:28PM 37.9297 -100.4883 249° West 416 479 34,000  Level Kansas City Center
03:29PM 37.8836 -100.6397 249° West 414 476 34,000  Level Kansas City Center
03:30PM 37.8439 -100.7683 249° West 414 476 34,000  Level Kansas City Center
03:32PM 37.7969 -100.9172 248° West 414 476 34,000  Level Kansas City Center
03:33PM 37.7578 -101.0436 249° West 413 475 34,000  Level Kansas City Center
03:34PM 37.7117 -101.1925 249° West 413 475 34,000  Level Kansas City Center
03:35PM 37.6717 -101.3208 249° West 412 474 34,000  Level Kansas City Center
03:36PM 37.6247 -101.4706 248° West 411 473 34,000  Level Kansas City Center
03:37PM 37.5844 -101.5989 248° West 413 475 34,000  Level Kansas City Center
03:38PM 37.5442 -101.7264 248° West 411 473 34,000  Level Kansas City Center
03:39PM 37.4958 -101.8767 248° West 414 476 34,000  Level Kansas City Center
03:39PM 37.4836 -101.9211 251° West 414 476 34,000  Level Albuquerque Center
03:40PM 37.4422 -102.0497 248° West 415 478 34,000  Level Albuquerque Center
03:41PM 37.3972 -102.1928 248° West 414 476 34,000  Level Albuquerque Center
03:42PM 37.3558 -102.3217 248° West 414 476 34,000  Level Albuquerque Center
03:43PM 37.3081 -102.4714 248° West 414 476 34,000  Level Albuquerque Center
03:44PM 37.2656 -102.6003 248° West 415 478 34,000  Level Albuquerque Center
03:45PM 37.2142 -102.7525 247° West 422 486 34,000  Level Albuquerque Center
03:46PM 37.1722 -102.8839 248° West 424 488 34,000  Level Albuquerque Center
03:47PM 37.1275 -103.0169 247° West 431 496 34,000  Level Albuquerque Center
03:48PM 37.0772 -103.1706 248° West 426 490 34,000  Level Albuquerque Center
03:49PM 37.0311 -103.3031 246° West 430 495 34,000  Level Albuquerque Center
03:50PM 36.9803 -103.4569 248° West 429 494 34,000  Level Albuquerque Center
03:51PM 36.9353 -103.5911 247° West 431 496 34,000  Level Albuquerque Center
03:52PM 36.8892 -103.7256 247° West 435 501 34,000  Level Albuquerque Center
03:53PM 36.8369 -103.8806 247° West 433 498 34,000  Level Albuquerque Center
03:54PM 36.7919 -104.0111 247° West 428 493 34,000  Level Albuquerque Center
03:55PM 36.7381 -104.1639 246° West 428 493 34,000  Level Albuquerque Center
03:56PM 36.6931 -104.2950 247° West 428 493 34,000  Level Albuquerque Center
03:57PM 36.6483 -104.4219 246° West 423 487 34,000  Level Albuquerque Center
03:59PM 36.5939 -104.5806 247° West 424 488 34,000  Level Albuquerque Center
04:00PM 36.5469 -104.7133 246° West 420 483 34,000  Level Albuquerque Center
04:01PM 36.5006 -104.8469 247° West 419 482 34,000  Level Albuquerque Center
04:02PM 36.4547 -104.9789 247° West 416 479 34,000  Level Albuquerque Center
04:03PM 36.4108 -105.1147 248° West 419 482 34,000  Level Albuquerque Center
04:04PM 36.3653 -105.2464 247° West 417 480 34,000  Level Albuquerque Center
04:05PM 36.3208 -105.3811 248° West 418 481 34,000  Level Albuquerque Center
04:06PM 36.2656 -105.5389 247° West 423 487 34,000  Level Albuquerque Center
04:07PM 36.2239 -105.6639 248° West 427 491 34,000  Level Albuquerque Center
04:08PM 36.1775 -105.8003 247° West 430 495 34,000  Level Albuquerque Center
04:09PM 36.1325 -105.9325 247° West 422 486 34,000  Level Albuquerque Center
04:10PM 36.0872 -106.0628 247° West 416 479 34,000  Level Albuquerque Center
04:11PM 36.0331 -106.2203 247° West 416 479 34,000  Level Albuquerque Center
04:12PM 35.9889 -106.3522 248° West 418 481 34,000  Level Albuquerque Center
04:13PM 35.9425 -106.4811 246° West 414 476 34,000  Level Albuquerque Center
04:14PM 35.8931 -106.6256 247° West 422 486 34,000  Level Albuquerque Center
04:15PM 35.8472 -106.7522 246° West 422 486 34,000  Level Albuquerque Center
04:16PM 35.7964 -106.9003 247° West 421 484 34,000  Level Albuquerque Center
04:17PM 35.7494 -107.0283 246° West 425 489 34,000  Level Albuquerque Center
04:18PM 35.6972 -107.1764 247° West 424 488 34,000  Level Albuquerque Center
04:19PM 35.6508 -107.3042 246° West 426 490 34,000  Level Albuquerque Center
04:20PM 35.6039 -107.4314 246° West 426 490 34,000  Level Albuquerque Center
04:21PM 35.5525 -107.5778 247° West 421 484 34,000  Level Albuquerque Center
04:22PM 35.5067 -107.7036 246° West 420 483 34,000  Level Albuquerque Center
04:23PM 35.4528 -107.8522 246° West 424 488 34,000  Level Albuquerque Center
04:24PM 35.4064 -107.9792 246° West 425 489 34,000  Level Albuquerque Center
04:25PM 35.3597 -108.1061 246° West 425 489 34,000  Level Albuquerque Center
04:26PM 35.3050 -108.2528 245° Southwest 424 488 34,000  Level Albuquerque Center
04:27PM 35.2597 -108.3786 246° West 422 486 34,000  Level Albuquerque Center
04:28PM 35.2053 -108.5253 246° West 423 487 34,000  Level Albuquerque Center
04:29PM 35.1578 -108.6525 245° Southwest 425 489 34,000  Level Albuquerque Center
04:30PM 35.1108 -108.7769 245° Southwest 423 487 34,000  Level Albuquerque Center
04:31PM 35.0558 -108.9231 245° Southwest 422 486 34,000  Level Albuquerque Center
04:32PM 35.0075 -109.0494 245° Southwest 426 490 34,000  Level Albuquerque Center
04:33PM 34.9531 -109.1950 246° West 422 486 34,000  Level Albuquerque Center
04:35PM 34.9069 -109.3208 246° West 423 487 34,000  Level Albuquerque Center
04:36PM 34.8542 -109.4672 246° West 423 487 34,000  Level Albuquerque Center
04:37PM 34.8075 -109.5894 245° Southwest 417 480 34,000  Level Albuquerque Center
04:38PM 34.7608 -109.7144 246° West 420 483 34,000  Level Albuquerque Center
04:39PM 34.7067 -109.8611 246° West 425 489 34,000  Level Albuquerque Center
04:40PM 34.6600 -109.9850 245° Southwest 423 487 34,000  Level Albuquerque Center
04:41PM 34.6075 -110.1333 247° West 426 490 34,000 -240 Level Albuquerque Center
04:42PM 34.5639 -110.2619 248° West 428 493 33,600 -660 Descending Albuquerque Center
04:43PM 34.5119 -110.3825 242° Southwest 424 488 32,700 -1,440 Descending Albuquerque Center
04:44PM 34.4597 -110.5369 248° West 433 498 30,700 -2,100 Descending Albuquerque Center
04:45PM 34.4114 -110.6589 244° Southwest 407 468 28,400 -2,340 Descending Albuquerque Center
04:46PM 34.3572 -110.7856 243° Southwest 423 487 26,000 -2,280 Descending Albuquerque Center
04:47PM 34.2822 -110.8886 229° Southwest 409 471 23,800 -2,160 Descending Albuquerque Center
04:48PM 34.2081 -110.9850 227° Southwest 397 457 21,600 -2,100 Descending Albuquerque Center
04:49PM 34.1364 -111.0772 227° Southwest 383 441 19,600 -1,980 Descending Albuquerque Center
04:50PM 34.0689 -111.1644 227° Southwest 365 420 17,600 -1,860 Descending Albuquerque Center
04:51PM 34.0050 -111.2469 227° Southwest 346 398 15,800 -1,860 Descending Albuquerque Center
04:52PM 33.9317 -111.3414 227° Southwest 323 372 13,800 -1,860 Descending Albuquerque Center
04:53PM 33.8719 -111.4156 226° Southwest 309 356 12,100 -1,380 Descending Albuquerque Center
04:54PM 33.8033 -111.4722 214° Southwest 299 344 11,000 -1,020 Descending Albuquerque Center
04:55PM 33.7414 -111.5267 216° Southwest 279 321 10,100 -900 Descending Albuquerque Center
04:56PM 33.6783 -111.5800 215° Southwest 276 318 9,200 -900 Descending Albuquerque Center
04:57PM 33.6194 -111.6292 215° Southwest 257 296 8,300 -1,080 Descending Albuquerque Center
04:58PM 33.5564 -111.6550 199° South 240 276 7,100 -900 Descending Albuquerque Center
04:59PM 33.4978 -111.6794 199° South 214 246 6,500 -720 Descending Albuquerque Center
05:00PM 33.4697 -111.7200 230° Southwest 187 215 5,700 -960 Descending Albuquerque Center
05:01PM 33.4492 -111.7861 250° West 177 204 4,600 -1,020 Descending Albuquerque Center
05:02PM 33.4408 -111.8417 260° West 174 200 3,700 -1,020 Descending Albuquerque Center
05:03PM 33.4408 -111.8992 270° West 173 199 2,600 -840 Descending Albuquerque Center
05:05PM 33.4403 -111.9878 270° West 141 162 1,200 -720 Descending Albuquerque Center
05:07PM 33.4333 -112.0000 270° West  Level FlightAware Approximate